createdAt,value
2023-03-19T00:01:26.612Z,11.20
2023-03-19T00:04:00.370Z,11.20
2023-03-19T00:06:27.255Z,11.20
2023-03-19T00:08:54.015Z,11.20
2023-03-19T00:11:27.310Z,11.10
2023-03-19T00:14:00.228Z,11.20
2023-03-19T00:16:27.217Z,11.20
2023-03-19T00:18:54.929Z,11.10
2023-03-19T00:21:30.743Z,11.10
2023-03-19T00:24:08.540Z,11.20
2023-03-19T00:26:37.612Z,11.20
2023-03-19T00:29:04.929Z,11.20
2023-03-19T00:31:38.378Z,11.20
2023-03-19T00:34:05.217Z,11.10
2023-03-19T00:36:32.106Z,11.10
2023-03-19T00:39:05.247Z,11.00
2023-03-19T00:41:39.276Z,11.00
2023-03-19T00:44:06.618Z,10.90
2023-03-19T00:46:33.626Z,10.80
2023-03-19T00:49:07.316Z,10.70
2023-03-19T00:51:34.116Z,10.70
2023-03-19T00:54:00.879Z,10.60
2023-03-19T00:56:34.333Z,10.60
2023-03-19T00:59:01.162Z,10.60
2023-03-19T01:01:34.358Z,10.50
2023-03-19T01:04:01.581Z,10.50
2023-03-19T01:06:28.504Z,10.50
2023-03-19T01:09:02.336Z,10.60
2023-03-19T01:11:35.299Z,10.60
2023-03-19T01:14:02.535Z,10.70
2023-03-19T01:16:36.308Z,10.70
2023-03-19T01:19:10.341Z,10.80
2023-03-19T01:21:43.313Z,10.80
2023-03-19T01:24:10.788Z,10.80
2023-03-19T01:26:45.327Z,10.80
2023-03-19T01:29:18.359Z,10.80
2023-03-19T01:31:51.485Z,10.80
2023-03-19T01:34:24.370Z,10.90
2023-03-19T01:37:11.406Z,10.90
2023-03-19T01:39:41.581Z,10.90
2023-03-19T01:42:21.345Z,10.90
2023-03-19T01:44:49.290Z,10.90
2023-03-19T01:47:59.390Z,10.80
2023-03-19T01:50:44.389Z,10.70
2023-03-19T01:53:15.756Z,10.60
2023-03-19T01:55:42.671Z,10.50
2023-03-19T01:58:17.390Z,10.50
2023-03-19T02:00:45.165Z,10.40
2023-03-19T02:03:19.434Z,10.30
2023-03-19T02:05:49.131Z,10.30
2023-03-19T02:08:25.434Z,10.20
2023-03-19T02:10:53.959Z,10.20
2023-03-19T02:13:36.465Z,10.10
2023-03-19T02:16:04.346Z,10.10
2023-03-19T02:18:38.432Z,10.10
2023-03-19T02:21:08.628Z,10.10
2023-03-19T02:24:02.427Z,10.20
2023-03-19T02:26:30.836Z,10.30
2023-03-19T02:29:04.490Z,10.30
2023-03-19T02:31:31.540Z,10.20
2023-03-19T02:34:07.465Z,10.20
2023-03-19T02:36:38.922Z,10.10
2023-03-19T02:39:18.496Z,10.10
2023-03-19T02:41:47.064Z,10.10
2023-03-19T02:44:20.450Z,10.10
2023-03-19T02:46:50.959Z,10.20
2023-03-19T02:49:24.474Z,10.20
2023-03-19T02:52:19.471Z,10.20
2023-03-19T02:54:53.466Z,10.20
2023-03-19T02:57:26.542Z,10.10
2023-03-19T02:59:59.508Z,10.10
2023-03-19T03:02:26.584Z,10.00
2023-03-19T03:05:00.489Z,10.00
2023-03-19T03:07:27.599Z,9.90
2023-03-19T03:09:54.470Z,9.90
2023-03-19T03:12:34.528Z,9.90
2023-03-19T03:15:02.057Z,9.90
2023-03-19T03:17:35.539Z,9.90
2023-03-19T03:20:02.292Z,9.90
2023-03-19T03:22:35.525Z,9.80
2023-03-19T03:25:02.330Z,9.80
2023-03-19T03:27:35.553Z,9.80
2023-03-19T03:30:09.526Z,9.80
2023-03-19T03:32:44.552Z,9.80
2023-03-19T03:35:21.945Z,9.80
2023-03-19T03:37:57.544Z,9.80
2023-03-19T03:40:24.296Z,9.70
2023-03-19T03:43:04.562Z,9.70
2023-03-19T03:45:31.393Z,9.60
2023-03-19T03:48:04.572Z,9.50
2023-03-19T03:50:31.574Z,9.50
2023-03-19T03:53:04.570Z,9.40
2023-03-19T03:55:37.664Z,9.40
2023-03-19T03:58:11.579Z,9.40
2023-03-19T04:00:38.538Z,9.40
2023-03-19T04:03:05.492Z,9.30
2023-03-19T04:05:38.611Z,9.30
2023-03-19T04:08:12.592Z,9.30
2023-03-19T04:10:42.307Z,9.30
2023-03-19T04:13:19.630Z,9.20
2023-03-19T04:15:53.618Z,9.20
2023-03-19T04:18:27.599Z,9.20
2023-03-19T04:20:54.402Z,9.10
2023-03-19T04:23:27.635Z,9.10
2023-03-19T04:26:03.447Z,9.10
2023-03-19T04:28:38.609Z,9.00
2023-03-19T04:31:07.549Z,9.00
2023-03-19T04:33:41.702Z,8.90
2023-03-19T04:36:08.812Z,8.90
2023-03-19T04:38:42.674Z,8.90
2023-03-19T04:41:09.714Z,8.90
2023-03-19T04:43:43.625Z,8.80
2023-03-19T04:46:10.480Z,8.80
2023-03-19T04:48:44.776Z,8.80
2023-03-19T04:51:11.555Z,8.80
2023-03-19T04:53:39.921Z,8.80
2023-03-19T04:56:14.668Z,8.80
2023-03-19T04:58:48.689Z,8.80
2023-03-19T05:01:21.713Z,8.70
2023-03-19T05:03:48.644Z,8.70
2023-03-19T05:06:21.686Z,8.70
2023-03-19T05:08:48.786Z,8.60
2023-03-19T05:11:21.721Z,8.60
2023-03-19T05:13:48.477Z,8.70
2023-03-19T05:16:22.723Z,8.70
2023-03-19T05:18:55.710Z,8.70
2023-03-19T05:21:29.303Z,8.80
2023-03-19T05:24:09.737Z,8.80
2023-03-19T05:26:43.741Z,8.80
2023-03-19T05:29:11.247Z,8.80
2023-03-19T05:31:38.356Z,8.80
2023-03-19T05:34:11.723Z,8.80
2023-03-19T05:36:44.738Z,8.80
2023-03-19T05:39:11.453Z,8.80
2023-03-19T05:41:44.811Z,8.80
2023-03-19T05:44:18.768Z,8.80
2023-03-19T05:46:46.566Z,8.80
2023-03-19T05:49:19.771Z,8.80
2023-03-19T05:51:54.776Z,8.80
2023-03-19T05:54:27.854Z,8.80
2023-03-19T05:56:58.863Z,8.80
2023-03-19T05:59:25.844Z,8.80
2023-03-19T06:01:58.768Z,8.80
2023-03-19T06:04:26.208Z,8.80
2023-03-19T06:07:05.745Z,8.80
2023-03-19T06:09:32.561Z,8.80
2023-03-19T06:12:05.837Z,8.80
2023-03-19T06:14:38.779Z,8.80
2023-03-19T06:17:05.672Z,8.80
2023-03-19T06:19:38.786Z,8.80
2023-03-19T06:22:05.898Z,8.80
2023-03-19T06:24:45.913Z,8.80
2023-03-19T06:27:12.829Z,8.70
2023-03-19T06:29:53.118Z,8.70
2023-03-19T06:32:19.932Z,8.80
2023-03-19T06:34:54.033Z,8.70
2023-03-19T06:37:21.020Z,8.70
2023-03-19T06:39:55.972Z,8.70
2023-03-19T06:42:29.921Z,8.60
2023-03-19T06:45:03.877Z,8.60
2023-03-19T06:47:34.196Z,8.70
2023-03-19T06:50:12.888Z,8.70
2023-03-19T06:52:40.486Z,8.80
2023-03-19T06:55:08.159Z,8.80
2023-03-19T06:57:42.963Z,8.80
2023-03-19T07:00:11.725Z,8.70
2023-03-19T07:02:44.888Z,8.60
2023-03-19T07:05:11.913Z,8.70
2023-03-19T07:07:45.902Z,8.70
2023-03-19T07:10:19.896Z,8.70
2023-03-19T07:12:52.909Z,8.70
2023-03-19T07:15:21.388Z,8.70
2023-03-19T07:17:56.860Z,8.70
2023-03-19T07:20:23.833Z,8.70
2023-03-19T07:23:00.908Z,8.70
2023-03-19T07:25:27.882Z,8.70
2023-03-19T07:28:00.939Z,8.70
2023-03-19T07:30:27.999Z,8.60
2023-03-19T07:33:02.017Z,8.70
2023-03-19T07:35:28.926Z,8.70
2023-03-19T07:38:09.923Z,8.70
2023-03-19T07:40:37.038Z,8.70
2023-03-19T07:43:10.953Z,8.70
2023-03-19T07:45:37.986Z,8.70
2023-03-19T07:48:11.935Z,8.70
2023-03-19T07:50:41.316Z,8.70
2023-03-19T07:53:08.332Z,8.80
2023-03-19T07:55:41.997Z,8.80
2023-03-19T07:58:08.845Z,8.90
2023-03-19T08:00:42.954Z,8.90
2023-03-19T08:03:15.993Z,9.00
2023-03-19T08:05:50.022Z,9.00
2023-03-19T08:08:17.462Z,9.10
2023-03-19T08:10:51.035Z,9.20
2023-03-19T08:13:17.953Z,9.30
2023-03-19T08:15:51.053Z,9.40
2023-03-19T08:18:32.096Z,9.40
2023-03-19T08:20:58.842Z,9.40
2023-03-19T08:23:27.042Z,9.40
2023-03-19T08:26:02.028Z,9.30
2023-03-19T08:28:35.045Z,9.30
2023-03-19T08:31:13.745Z,9.40
2023-03-19T08:33:48.108Z,9.50
2023-03-19T08:36:15.446Z,9.40
2023-03-19T08:38:43.583Z,9.30
2023-03-19T08:41:17.058Z,9.30
2023-03-19T08:43:43.883Z,9.20
2023-03-19T08:46:18.147Z,9.20
2023-03-19T08:48:45.222Z,9.20
2023-03-19T08:51:19.118Z,9.20
2023-03-19T08:53:45.915Z,9.30
2023-03-19T08:56:19.017Z,9.30
2023-03-19T08:58:45.867Z,9.40
2023-03-19T09:01:21.060Z,9.50
2023-03-19T09:03:47.973Z,9.50
2023-03-19T09:06:22.072Z,9.50
2023-03-19T09:08:48.928Z,9.60
2023-03-19T09:11:24.128Z,9.70
2023-03-19T09:13:51.086Z,9.70
2023-03-19T09:16:25.153Z,9.70
2023-03-19T09:18:52.011Z,9.80
2023-03-19T09:21:26.131Z,9.80
2023-03-19T09:23:52.994Z,9.90
2023-03-19T09:26:26.114Z,9.90
2023-03-19T09:28:54.597Z,9.80
2023-03-19T09:31:29.777Z,9.70
2023-03-19T09:33:57.021Z,9.70
2023-03-19T09:36:30.121Z,9.80
2023-03-19T09:38:57.445Z,9.70
2023-03-19T09:42:07.101Z,9.70
2023-03-19T09:44:45.771Z,9.80
2023-03-19T09:47:35.171Z,9.90
2023-03-19T09:50:11.471Z,10.00
2023-03-19T09:53:04.130Z,10.00
2023-03-19T09:55:43.959Z,10.10
2023-03-19T09:58:26.156Z,10.10
2023-03-19T10:01:00.133Z,10.10
2023-03-19T10:03:36.406Z,10.00
2023-03-19T10:06:14.021Z,10.10
2023-03-19T10:08:56.164Z,10.10
2023-03-19T10:11:34.662Z,10.10
2023-03-19T10:14:35.126Z,10.00
2023-03-19T10:17:04.515Z,10.10
2023-03-19T10:19:53.211Z,10.20
2023-03-19T10:22:25.966Z,10.30
2023-03-19T10:25:03.176Z,10.50
2023-03-19T10:27:33.153Z,10.60
2023-03-19T10:30:07.213Z,10.60
2023-03-19T10:32:57.368Z,10.50
2023-03-19T10:35:43.236Z,10.50
2023-03-19T10:38:25.484Z,10.50
2023-03-19T10:41:22.197Z,10.40
2023-03-19T10:44:14.707Z,10.40
2023-03-19T10:46:48.233Z,10.30
2023-03-19T10:49:23.274Z,10.30
2023-03-19T10:51:57.418Z,10.40
2023-03-19T10:54:30.481Z,10.40
2023-03-19T10:57:06.238Z,10.40
2023-03-19T10:59:38.263Z,10.40
2023-03-19T11:02:26.267Z,10.40
2023-03-19T11:05:14.946Z,10.50
2023-03-19T11:08:04.268Z,10.40
2023-03-19T11:10:35.991Z,10.40
2023-03-19T11:13:32.274Z,10.30
2023-03-19T11:16:07.578Z,10.30
2023-03-19T11:18:39.634Z,10.30
2023-03-19T11:21:43.282Z,10.50
2023-03-19T11:24:12.783Z,10.50
2023-03-19T11:26:46.282Z,10.70
2023-03-19T11:29:19.331Z,10.70
2023-03-19T11:32:08.611Z,10.80
2023-03-19T11:34:57.312Z,10.70
2023-03-19T11:38:02.376Z,10.70
2023-03-19T11:40:50.344Z,10.70
2023-03-19T11:43:32.518Z,10.70
2023-03-19T11:46:26.381Z,10.70
2023-03-19T11:49:11.493Z,10.70
2023-03-19T11:51:53.294Z,10.70
2023-03-19T11:54:48.444Z,10.70
2023-03-19T11:57:47.301Z,10.80
2023-03-19T12:00:59.340Z,10.80
2023-03-19T12:03:50.529Z,10.80
2023-03-19T12:06:24.344Z,10.90
2023-03-19T12:09:16.357Z,11.00
2023-03-19T12:12:17.311Z,10.90
2023-03-19T12:15:23.386Z,11.00
2023-03-19T12:18:17.387Z,11.00
2023-03-19T12:21:10.929Z,11.10
2023-03-19T12:24:07.351Z,11.30
2023-03-19T12:26:43.172Z,11.40
2023-03-19T12:29:30.362Z,11.40
2023-03-19T12:32:27.381Z,11.40
2023-03-19T12:35:09.439Z,11.40
2023-03-19T12:37:49.080Z,11.60
2023-03-19T12:40:38.421Z,11.60
2023-03-19T12:43:14.819Z,11.70
2023-03-19T12:45:53.432Z,11.80
2023-03-19T12:48:27.092Z,11.80
2023-03-19T12:51:05.393Z,11.90
2023-03-19T12:53:41.062Z,12.10
2023-03-19T12:56:26.491Z,12.20
2023-03-19T12:59:28.428Z,12.20
2023-03-19T13:02:30.535Z,12.40
2023-03-19T13:05:29.616Z,12.50
2023-03-19T13:08:05.843Z,12.80
2023-03-19T13:10:39.427Z,13.10
2023-03-19T13:13:31.072Z,13.30
2023-03-19T13:16:33.584Z,13.40
2023-03-19T13:19:41.936Z,13.40
2023-03-19T13:22:20.478Z,13.50
2023-03-19T13:24:49.430Z,13.50
2023-03-19T13:27:36.478Z,13.60
2023-03-19T13:30:18.480Z,13.60
2023-03-19T13:32:54.665Z,13.50
2023-03-19T13:35:56.560Z,13.40
2023-03-19T13:38:34.382Z,13.30
2023-03-19T13:41:08.761Z,13.50
2023-03-19T13:43:35.821Z,13.60
2023-03-19T13:46:32.570Z,13.80
2023-03-19T13:49:27.381Z,13.90
2023-03-19T13:52:06.817Z,13.60
2023-03-19T13:54:41.541Z,13.50
2023-03-19T13:57:22.797Z,13.40
2023-03-19T13:59:50.807Z,13.40
2023-03-19T14:02:32.503Z,13.60
2023-03-19T14:05:02.006Z,13.60
2023-03-19T14:07:43.579Z,13.50
2023-03-19T14:10:25.629Z,13.40
2023-03-19T14:13:10.551Z,13.30
2023-03-19T14:15:41.778Z,13.20
2023-03-19T14:18:25.564Z,13.10
2023-03-19T14:21:13.006Z,13.00
2023-03-19T14:23:46.117Z,13.00
2023-03-19T14:26:30.562Z,13.00
2023-03-19T14:29:09.546Z,12.90
2023-03-19T14:31:49.406Z,12.90
2023-03-19T14:34:46.609Z,12.80
2023-03-19T14:37:31.615Z,12.80
2023-03-19T14:40:17.526Z,12.80
2023-03-19T14:43:04.571Z,12.70
2023-03-19T14:45:57.727Z,12.60
2023-03-19T14:48:40.609Z,12.50
2023-03-19T14:51:19.653Z,12.50
2023-03-19T14:53:55.599Z,12.40
2023-03-19T14:56:39.583Z,12.50
2023-03-19T14:59:11.323Z,12.50
2023-03-19T15:01:53.629Z,12.60
2023-03-19T15:04:26.208Z,12.60
2023-03-19T15:07:02.663Z,12.60
2023-03-19T15:09:39.762Z,12.60
2023-03-19T15:12:33.573Z,12.60
2023-03-19T15:15:30.668Z,12.50
2023-03-19T15:18:04.380Z,12.50
2023-03-19T15:20:43.632Z,12.50
2023-03-19T15:23:25.788Z,12.50
2023-03-19T15:26:07.667Z,12.40
2023-03-19T15:28:49.442Z,12.30
2023-03-19T15:31:33.630Z,12.30
2023-03-19T15:34:28.360Z,12.30
2023-03-19T15:37:14.678Z,12.30
2023-03-19T15:39:48.013Z,12.30
2023-03-19T15:42:23.725Z,12.20
2023-03-19T15:45:01.947Z,12.10
2023-03-19T15:47:35.392Z,12.00
2023-03-19T15:50:22.710Z,11.80
2023-03-19T15:52:57.561Z,11.70
2023-03-19T15:55:32.839Z,11.40
2023-03-19T15:58:12.691Z,11.30
2023-03-19T16:00:41.361Z,11.20
2023-03-19T16:03:26.718Z,11.10
2023-03-19T16:06:27.082Z,11.00
2023-03-19T16:09:03.806Z,10.90
2023-03-19T16:11:53.146Z,10.90
2023-03-19T16:14:33.764Z,10.90
2023-03-19T16:17:15.446Z,10.80
2023-03-19T16:19:58.807Z,10.80
2023-03-19T16:22:30.666Z,10.80
2023-03-19T16:25:04.842Z,10.70
2023-03-19T16:27:40.768Z,10.70
2023-03-19T16:30:34.111Z,10.60
2023-03-19T16:33:04.023Z,10.60
2023-03-19T16:35:33.284Z,10.60
2023-03-19T16:38:19.744Z,10.60
2023-03-19T16:41:08.116Z,10.50
2023-03-19T16:43:42.836Z,10.60
2023-03-19T16:46:13.058Z,10.60
2023-03-19T16:48:46.785Z,10.60
2023-03-19T16:51:23.753Z,10.60
2023-03-19T16:53:50.810Z,10.50
2023-03-19T16:56:25.792Z,10.50
2023-03-19T16:58:59.786Z,10.50
2023-03-19T17:01:26.781Z,10.50
2023-03-19T17:04:07.774Z,10.50
2023-03-19T17:06:35.077Z,10.50
2023-03-19T17:09:16.808Z,10.50
2023-03-19T17:11:46.399Z,10.50
2023-03-19T17:14:26.804Z,10.50
2023-03-19T17:17:01.823Z,10.40
2023-03-19T17:19:35.865Z,10.40
2023-03-19T17:22:09.807Z,10.40
2023-03-19T17:24:43.919Z,10.40
2023-03-19T17:27:11.705Z,10.40
2023-03-19T17:29:45.823Z,10.40
2023-03-19T17:32:19.134Z,10.40
2023-03-19T17:34:52.896Z,10.30
2023-03-19T17:37:19.760Z,10.30
2023-03-19T17:39:53.905Z,10.30
2023-03-19T17:42:25.941Z,10.30
2023-03-19T17:44:52.844Z,10.30
2023-03-19T17:47:30.912Z,10.30
2023-03-19T17:50:04.891Z,10.30
2023-03-19T17:52:31.859Z,10.20
2023-03-19T17:55:04.896Z,10.20
2023-03-19T17:57:37.936Z,10.20
2023-03-19T18:00:06.362Z,10.20
2023-03-19T18:02:41.867Z,10.10
2023-03-19T18:05:20.754Z,10.10
2023-03-19T18:07:57.939Z,10.00
2023-03-19T18:10:27.585Z,10.00
2023-03-19T18:13:00.967Z,10.00
2023-03-19T18:15:33.216Z,10.00
2023-03-19T18:18:08.953Z,10.00
2023-03-19T18:20:44.932Z,9.90
2023-03-19T18:23:15.988Z,9.90
2023-03-19T18:25:53.940Z,9.90
2023-03-19T18:28:26.942Z,9.90
2023-03-19T18:30:58.241Z,9.90
2023-03-19T18:33:34.945Z,9.90
2023-03-19T18:36:01.939Z,9.80
2023-03-19T18:38:28.807Z,9.80
2023-03-19T18:41:01.981Z,9.80
2023-03-19T18:43:35.108Z,9.80
2023-03-19T18:46:01.948Z,9.70
2023-03-19T18:48:38.974Z,9.70
2023-03-19T18:51:05.999Z,9.60
2023-03-19T18:53:39.114Z,9.50
2023-03-19T18:56:31.955Z,9.50
2023-03-19T18:59:00.600Z,9.40
2023-03-19T19:01:35.058Z,9.30
2023-03-19T19:04:11.029Z,9.30
2023-03-19T19:06:47.381Z,9.30
2023-03-19T19:09:21.012Z,9.20
2023-03-19T19:11:55.018Z,9.10
2023-03-19T19:14:31.008Z,9.00
2023-03-19T19:16:57.874Z,9.00
2023-03-19T19:19:34.025Z,9.00
2023-03-19T19:22:02.686Z,9.00
2023-03-19T19:24:36.057Z,8.90
2023-03-19T19:27:03.052Z,8.90
2023-03-19T19:29:30.546Z,8.90
2023-03-19T19:32:11.054Z,8.90
2023-03-19T19:34:38.291Z,8.90
2023-03-19T19:37:12.176Z,8.90
2023-03-19T19:39:39.002Z,8.80
2023-03-19T19:42:06.224Z,8.80
2023-03-19T19:44:39.083Z,8.80
2023-03-19T19:47:21.039Z,8.70
2023-03-19T19:49:54.119Z,8.70
2023-03-19T19:52:21.376Z,8.70
2023-03-19T19:54:55.106Z,8.60
2023-03-19T19:57:31.081Z,8.70
2023-03-19T19:59:57.928Z,8.70
2023-03-19T20:02:36.170Z,8.60
2023-03-19T20:05:04.632Z,8.60
2023-03-19T20:07:46.118Z,8.60
2023-03-19T20:10:20.135Z,8.60
2023-03-19T20:12:59.110Z,8.60
2023-03-19T20:15:40.174Z,8.50
2023-03-19T20:18:14.530Z,8.60
2023-03-19T20:20:48.077Z,8.60
2023-03-19T20:23:23.130Z,8.60
2023-03-19T20:25:57.102Z,8.50
2023-03-19T20:28:34.444Z,8.50
2023-03-19T20:31:11.257Z,8.50
2023-03-19T20:33:45.203Z,8.50
2023-03-19T20:36:22.198Z,8.50
2023-03-19T20:38:49.184Z,8.50
2023-03-19T20:41:33.139Z,8.50
2023-03-19T20:44:04.577Z,8.50
2023-03-19T20:46:38.291Z,8.50
2023-03-19T20:49:05.163Z,8.50
2023-03-19T20:51:33.110Z,8.50
2023-03-19T20:54:06.156Z,8.60
2023-03-19T20:56:37.692Z,8.50
2023-03-19T20:59:11.149Z,8.50
2023-03-19T21:01:38.083Z,8.50
2023-03-19T21:04:12.166Z,8.50
2023-03-19T21:06:52.476Z,8.50
2023-03-19T21:09:28.165Z,8.60
2023-03-19T21:11:55.310Z,8.60
2023-03-19T21:14:30.193Z,8.60
2023-03-19T21:16:57.279Z,8.60
2023-03-19T21:19:30.213Z,8.60
2023-03-19T21:22:03.197Z,8.60
2023-03-19T21:24:31.251Z,8.50
2023-03-19T21:27:06.232Z,8.50
2023-03-19T21:29:36.467Z,8.50
2023-03-19T21:32:18.438Z,8.50
2023-03-19T21:34:53.263Z,8.60
2023-03-19T21:37:22.579Z,8.70
2023-03-19T21:39:56.236Z,8.70
2023-03-19T21:42:29.972Z,8.70
2023-03-19T21:45:06.259Z,8.70
2023-03-19T21:47:33.716Z,8.70
2023-03-19T21:50:08.519Z,8.60
2023-03-19T21:52:54.114Z,8.60
2023-03-19T21:55:30.258Z,8.70
2023-03-19T21:58:00.406Z,8.60
2023-03-19T22:00:34.275Z,8.60
2023-03-19T22:03:01.636Z,8.60
2023-03-19T22:05:32.185Z,8.60
2023-03-19T22:08:05.392Z,8.60
2023-03-19T22:10:35.068Z,8.60
2023-03-19T22:13:11.621Z,8.60
2023-03-19T22:15:38.483Z,8.60
2023-03-19T22:18:07.706Z,8.60
2023-03-19T22:20:41.404Z,8.60
2023-03-19T22:23:15.284Z,8.60
2023-03-19T22:25:44.237Z,8.60
2023-03-19T22:28:33.573Z,8.60
2023-03-19T22:31:03.107Z,8.60
2023-03-19T22:33:43.300Z,8.50
2023-03-19T22:36:14.931Z,8.50
2023-03-19T22:38:51.335Z,8.50
2023-03-19T22:41:40.304Z,8.50
2023-03-19T22:44:11.895Z,8.50
2023-03-19T22:46:52.319Z,8.50
2023-03-19T22:49:25.384Z,8.50
2023-03-19T22:51:58.223Z,8.50
2023-03-19T22:54:32.350Z,8.50
2023-03-19T22:57:12.378Z,8.50
2023-03-19T22:59:39.168Z,8.50
2023-03-19T23:02:19.378Z,8.50
2023-03-19T23:04:49.747Z,8.50
2023-03-19T23:07:16.552Z,8.50
2023-03-19T23:09:50.360Z,8.50
2023-03-19T23:12:21.958Z,8.50
2023-03-19T23:14:55.358Z,8.50
2023-03-19T23:17:22.118Z,8.50
2023-03-19T23:20:00.351Z,8.50
2023-03-19T23:22:27.506Z,8.40
2023-03-19T23:24:54.334Z,8.40
2023-03-19T23:27:32.380Z,8.50
2023-03-19T23:30:05.499Z,8.50
2023-03-19T23:32:32.685Z,8.40
2023-03-19T23:35:01.687Z,8.50
2023-03-19T23:37:35.571Z,8.50
2023-03-19T23:40:03.669Z,8.50
2023-03-19T23:42:32.416Z,8.50
2023-03-19T23:45:10.579Z,8.50
2023-03-19T23:47:37.547Z,8.40
2023-03-19T23:50:04.547Z,8.40
2023-03-19T23:52:39.691Z,8.40
2023-03-19T23:55:07.160Z,8.40
2023-03-19T23:57:46.474Z,8.40
